Time;durP1;ratioP1;P1;durP2;ratioP2;P2;SDS_P1;SDS_P2;PMS_P1;PMS_P2;Temp;Humidity;BMP_temperature;BMP_pressure;BME280_temperature;BME280_humidity;BME280_pressure;Samples;Min_cycle;Max_cycle;Signal;HPM_P1;HPM_P2
2022/05/11 00:00:53;;;;;;;;;9.50;9.50;;;;;18.10;53.48;100600.78;4959438;28;45438;-73
2022/05/11 00:03:20;;;;;;;;;7.25;7.25;;;;;18.08;53.51;100597.38;4959130;28;45287;-75
2022/05/11 00:05:46;;;;;;;;;7.25;7.25;;;;;18.09;53.57;100595.59;4957929;28;45280;-74
2022/05/11 00:08:11;;;;;;;;;10.25;9.00;;;;;18.07;53.45;100598.34;4957755;28;45262;-74
2022/05/11 00:10:37;;;;;;;;;7.25;7.25;;;;;18.02;53.56;100594.31;4959606;28;45537;-70
2022/05/11 00:13:04;;;;;;;;;8.50;7.75;;;;;17.99;53.73;100583.84;4960545;28;46943;-75
2022/05/11 00:15:29;;;;;;;;;11.00;9.00;;;;;17.95;53.93;100586.72;4959832;28;45482;-70
2022/05/11 00:17:55;;;;;;;;;11.25;9.25;;;;;17.91;54.24;100587.06;4959943;28;45425;-72
2022/05/11 00:20:23;;;;;;;;;13.75;12.75;;;;;17.87;54.14;100580.28;4959839;28;45386;-72
2022/05/11 00:22:55;;;;;;;;;10.00;10.00;;;;;17.86;54.41;100571.41;4960420;28;46494;-65
2022/05/11 00:25:24;;;;;;;;;9.25;9.25;;;;;17.77;54.45;100564.09;4959490;28;45195;-69
2022/05/11 00:27:50;;;;;;;;;10.50;8.75;;;;;17.80;54.19;100572.72;4958681;28;45426;-69
2022/05/11 00:30:15;;;;;;;;;13.00;9.50;;;;;17.78;54.33;100569.31;4960555;28;45215;-71
2022/05/11 00:32:41;;;;;;;;;9.75;9.00;;;;;17.78;54.41;100564.00;4957254;28;52739;-71
2022/05/11 00:35:06;;;;;;;;;10.75;9.25;;;;;17.77;54.31;100562.31;4958584;28;45204;-72
2022/05/11 00:37:32;;;;;;;;;8.75;8.75;;;;;17.76;54.20;100559.72;4958879;28;45263;-71
2022/05/11 00:39:58;;;;;;;;;12.50;12.50;;;;;17.76;54.82;100562.38;4957641;28;45262;-71
2022/05/11 00:42:24;;;;;;;;;11.75;11.25;;;;;17.72;54.63;100555.59;4959745;28;46381;-70
2022/05/11 00:44:49;;;;;;;;;21.25;14.25;;;;;17.71;54.72;100556.56;4958334;28;45356;-71
2022/05/11 00:47:27;;;;;;;;;10.00;10.00;;;;;17.64;54.84;100543.69;4957054;28;45351;-69
2022/05/11 00:50:16;;;;;;;;;14.50;13.50;;;;;17.65;54.79;100547.22;4956195;28;45459;-74
2022/05/11 00:52:57;;;;;;;;;11.50;11.50;;;;;17.65;54.84;100544.56;4960214;28;45311;-73
2022/05/11 00:55:30;;;;;;;;;11.75;9.75;;;;;17.61;54.98;100543.91;4958651;28;45384;-72
2022/05/11 00:58:04;;;;;;;;;13.50;13.50;;;;;17.55;55.19;100536.34;4956055;28;45505;-72
2022/05/11 01:00:30;;;;;;;;;15.25;14.50;;;;;17.50;55.62;100528.72;4958578;28;45417;-71
2022/05/11 01:03:01;;;;;;;;;13.25;12.00;;;;;17.48;55.38;100527.94;4956428;28;45446;-73
2022/05/11 01:05:27;;;;;;;;;12.25;12.00;;;;;17.45;55.19;100525.50;4958185;28;45245;-73
2022/05/11 01:07:55;;;;;;;;;11.50;9.75;;;;;17.42;55.91;100523.06;4960060;28;45278;-73
2022/05/11 01:10:21;;;;;;;;;10.25;9.25;;;;;17.37;56.00;100522.53;4960122;28;45535;-71
2022/05/11 01:12:51;;;;;;;;;9.25;8.25;;;;;17.32;56.07;100516.69;4958635;28;45442;-70
2022/05/11 01:15:19;;;;;;;;;9.50;9.50;;;;;17.28;56.46;100509.88;4956348;28;45339;-70
2022/05/11 01:17:45;;;;;;;;;12.75;9.50;;;;;17.25;56.45;100512.75;4955313;28;45290;-72
2022/05/11 01:20:16;;;;;;;;;11.75;10.25;;;;;17.20;56.49;100503.28;4956433;28;45330;-72
2022/05/11 01:23:20;;;;;;;;;10.00;10.00;;;;;17.16;56.39;100507.13;4955887;28;46162;-71
2022/05/11 01:25:46;;;;;;;;;10.25;10.25;;;;;17.16;56.55;100507.13;4956317;28;45203;-71
2022/05/11 01:28:15;;;;;;;;;11.00;10.00;;;;;17.11;56.56;100497.78;4941134;28;45484;-72
2022/05/11 01:30:45;;;;;;;;;11.25;9.50;;;;;17.11;56.99;100503.94;4959824;28;45424;-71
2022/05/11 01:33:17;;;;;;;;;10.25;10.25;;;;;17.12;57.00;100504.81;4959537;28;45428;-71
2022/05/11 01:36:21;;;;;;;;;10.00;9.75;;;;;17.08;56.83;100499.69;4960617;28;45484;-70
2022/05/11 01:38:50;;;;;;;;;9.00;8.00;;;;;17.04;57.04;100498.22;4960395;28;45450;-71
2022/05/11 01:41:31;;;;;;;;;10.50;10.50;;;;;17.02;56.91;100491.28;4960993;28;45184;-71
2022/05/11 01:43:57;;;;;;;;;9.75;9.50;;;;;16.96;56.87;100487.19;4959677;28;45998;-71
2022/05/11 01:46:23;;;;;;;;;10.50;10.50;;;;;17.00;57.22;100490.53;4943443;28;45411;-72
2022/05/11 01:48:49;;;;;;;;;10.75;10.75;;;;;16.99;57.38;100497.69;4959364;28;45368;-70
2022/05/11 01:51:17;;;;;;;;;9.75;8.25;;;;;16.96;57.28;100503.13;4941553;28;45668;-70
2022/05/11 01:53:44;;;;;;;;;10.00;10.00;;;;;16.92;57.50;100491.88;4958666;28;45253;-70
2022/05/11 01:56:09;;;;;;;;;9.50;9.00;;;;;16.92;57.49;100502.50;4958468;28;45491;-73
2022/05/11 01:58:36;;;;;;;;;12.75;12.75;;;;;16.88;57.79;100493.06;4959005;28;45412;-72
2022/05/11 02:01:02;;;;;;;;;10.00;10.00;;;;;16.80;57.49;100480.28;4959016;28;45365;-72
2022/05/11 02:03:27;;;;;;;;;11.75;10.00;;;;;16.87;57.79;100498.47;4958328;28;46198;-72
2022/05/11 02:08:43;;;;;;;;;10.50;9.25;;;;;16.80;57.82;100501.53;4960319;28;45248;-72
2022/05/11 02:11:09;;;;;;;;;9.75;9.75;;;;;16.78;58.00;100498.13;4959710;28;45172;-72
2022/05/11 02:13:35;;;;;;;;;10.75;9.50;;;;;16.79;58.16;100499.00;4958489;28;45464;-72
2022/05/11 02:16:01;;;;;;;;;9.00;9.00;;;;;16.76;58.23;100497.38;4959857;28;48265;-72
2022/05/11 02:18:26;;;;;;;;;11.00;11.00;;;;;16.75;58.18;100494.84;4958790;28;45385;-73
2022/05/11 02:20:52;;;;;;;;;9.50;9.00;;;;;16.73;58.24;100488.78;4959003;28;45573;-72
2022/05/11 02:23:19;;;;;;;;;8.25;7.25;;;;;16.71;58.22;100496.00;4942318;28;47462;-72
2022/05/11 02:25:46;;;;;;;;;8.75;8.75;;;;;16.67;58.46;100492.69;4958989;28;45331;-72
2022/05/11 02:28:13;;;;;;;;;12.00;10.25;;;;;16.64;58.45;100491.13;4958445;28;45325;-72
2022/05/11 02:30:42;;;;;;;;;11.00;9.50;;;;;16.51;58.20;100469.00;4959692;28;45342;-72
2022/05/11 02:33:08;;;;;;;;;14.50;11.50;;;;;16.55;58.65;100478.47;4961536;28;46810;-72
2022/05/11 02:35:33;;;;;;;;;12.75;9.25;;;;;16.58;58.64;100480.03;4959809;28;45449;-71
2022/05/11 02:38:02;;;;;;;;;9.25;8.25;;;;;16.58;58.36;100475.59;4940600;28;45264;-73
2022/05/11 02:40:31;;;;;;;;;7.50;7.50;;;;;16.60;58.74;100480.78;4940946;28;45306;-73
2022/05/11 02:42:57;;;;;;;;;10.00;9.00;;;;;16.60;58.68;100483.44;4941067;28;47827;-72
2022/05/11 02:45:24;;;;;;;;;10.50;10.50;;;;;16.58;58.53;100478.25;4958553;28;45328;-72
2022/05/11 02:47:51;;;;;;;;;9.75;9.75;;;;;16.58;58.47;100475.59;4958679;28;45217;-71
2022/05/11 02:50:23;;;;;;;;;9.50;9.50;;;;;16.60;58.64;100479.00;4958145;28;45525;-72
2022/05/11 02:52:49;;;;;;;;;13.25;10.25;;;;;16.59;58.82;100471.13;4957780;28;46300;-72
2022/05/11 02:55:14;;;;;;;;;9.75;8.50;;;;;16.59;58.95;100468.47;4940513;28;45305;-72
2022/05/11 02:57:40;;;;;;;;;10.00;10.00;;;;;16.54;59.00;100465.28;4960999;28;45204;-72
2022/05/11 03:00:09;;;;;;;;;10.00;8.25;;;;;16.58;58.61;100469.41;4943755;28;45578;-73
2022/05/11 03:02:35;;;;;;;;;10.25;10.25;;;;;16.57;59.36;100471.25;4957973;28;47107;-72
2022/05/11 03:05:00;;;;;;;;;8.00;7.75;;;;;16.58;58.80;100469.41;4940254;28;45351;-73
2022/05/11 03:07:25;;;;;;;;;11.00;9.25;;;;;16.55;58.73;100464.31;4958578;28;45371;-72
2022/05/11 03:09:53;;;;;;;;;9.75;9.75;;;;;16.56;58.93;100466.88;4957779;28;45376;-72
2022/05/11 03:12:18;;;;;;;;;11.00;10.00;;;;;16.56;58.96;100466.00;4957234;28;46935;-72
2022/05/11 03:14:44;;;;;;;;;12.25;10.75;;;;;16.56;59.20;100460.69;4957395;28;45312;-72
2022/05/11 03:17:09;;;;;;;;;11.25;10.25;;;;;16.56;59.18;100463.34;4958194;28;45304;-72
2022/05/11 03:19:35;;;;;;;;;12.75;11.25;;;;;16.56;59.12;100466.00;4958281;28;45623;-72
2022/05/11 03:22:00;;;;;;;;;11.00;11.00;;;;;16.55;59.10;100470.50;4957931;28;46238;-72
2022/05/11 03:24:26;;;;;;;;;12.50;12.00;;;;;16.56;59.38;100466.88;4958586;28;45303;-72
2022/05/11 03:26:51;;;;;;;;;14.50;13.00;;;;;16.52;59.16;100457.41;4958167;28;45160;-72
2022/05/11 03:29:18;;;;;;;;;12.75;12.75;;;;;16.55;59.41;100464.31;4958735;28;45176;-73
2022/05/11 03:34:38;;;;;;;;;11.00;11.00;;;;;16.43;59.45;100453.56;4937261;28;45433;-71
2022/05/11 03:37:05;;;;;;;;;14.00;10.75;;;;;16.46;59.38;100458.66;4957770;28;45279;-71
2022/05/11 03:39:30;;;;;;;;;13.50;11.00;;;;;16.53;60.03;100466.22;4957456;28;45624;-71
2022/05/11 03:41:56;;;;;;;;;11.00;11.00;;;;;16.51;59.50;100463.69;4957272;28;45438;-72
2022/05/11 03:44:21;;;;;;;;;13.25;13.25;;;;;16.53;59.51;100460.91;4939765;28;45292;-71
2022/05/11 03:46:46;;;;;;;;;14.75;14.00;;;;;16.53;59.79;100455.59;4940274;28;45527;-72
2022/05/11 03:49:12;;;;;;;;;11.75;11.75;;;;;16.45;59.52;100441.03;4957705;28;45562;-73
2022/05/11 03:51:37;;;;;;;;;11.50;11.25;;;;;16.52;60.15;100453.91;4958471;28;45336;-71
2022/05/11 03:54:03;;;;;;;;;15.25;12.50;;;;;16.49;59.82;100449.66;4958415;28;45284;-72
2022/05/11 03:56:28;;;;;;;;;13.75;12.00;;;;;16.53;59.74;100451.16;4959042;28;45365;-71
2022/05/11 03:58:55;;;;;;;;;14.75;12.00;;;;;16.53;59.85;100456.47;4958616;28;45576;-72
2022/05/11 04:01:20;;;;;;;;;12.00;12.00;;;;;16.53;59.71;100458.25;4959642;28;46604;-71
2022/05/11 04:03:46;;;;;;;;;12.25;12.25;;;;;16.49;59.87;100455.81;4959337;28;45217;-71
2022/05/11 04:06:11;;;;;;;;;15.00;12.00;;;;;16.49;59.84;100449.66;4957419;28;45240;-71
2022/05/11 04:08:37;;;;;;;;;13.75;13.50;;;;;16.44;59.94;100446.47;4957363;28;45244;-71
2022/05/11 04:11:02;;;;;;;;;14.25;13.25;;;;;16.53;59.95;100459.13;4958018;28;46074;-72
2022/05/11 04:13:27;;;;;;;;;13.25;12.25;;;;;16.53;60.12;100460.91;4959653;28;45192;-73
2022/05/11 04:15:53;;;;;;;;;13.00;12.25;;;;;16.53;59.75;100467.09;4961616;28;45947;-71
2022/05/11 04:18:19;;;;;;;;;14.25;13.75;;;;;16.56;60.10;100466.00;4941801;28;45528;-71
2022/05/11 04:20:45;;;;;;;;;14.00;14.00;;;;;16.57;60.09;100473.91;4956911;28;46262;-72
2022/05/11 04:23:11;;;;;;;;;13.00;13.00;;;;;16.54;60.02;100467.94;4956758;28;45509;-72
2022/05/11 04:25:37;;;;;;;;;12.75;12.00;;;;;16.60;60.67;100481.66;4958084;28;45314;-71
2022/05/11 04:28:07;;;;;;;;;12.00;12.00;;;;;16.62;60.27;100476.22;4942702;28;45465;-71
2022/05/11 04:30:33;;;;;;;;;14.50;14.00;;;;;16.62;60.27;100476.22;4959945;28;45264;-72
2022/05/11 04:33:00;;;;;;;;;13.75;13.75;;;;;16.61;60.19;100469.22;4958307;28;45292;-72
2022/05/11 04:35:31;;;;;;;;;10.25;10.25;;;;;16.65;60.17;100478.66;4940465;28;45413;-72
2022/05/11 04:37:58;;;;;;;;;13.50;13.50;;;;;16.68;60.45;100480.28;4957108;28;45278;-71
2022/05/11 04:40:25;;;;;;;;;14.75;14.00;;;;;16.69;60.07;100469.53;4956915;28;46153;-73
2022/05/11 04:42:50;;;;;;;;;15.25;14.00;;;;;16.72;60.11;100465.84;4941115;28;45360;-72
2022/05/11 04:45:16;;;;;;;;;17.75;14.50;;;;;16.62;60.04;100453.19;4958030;28;45833;-71
2022/05/11 04:47:45;;;;;;;;;13.00;13.00;;;;;16.75;60.63;100474.44;4958082;28;45417;-72
2022/05/11 04:50:13;;;;;;;;;14.75;13.00;;;;;16.75;60.27;100471.78;4958857;28;45772;-71
2022/05/11 04:52:38;;;;;;;;;15.25;15.25;;;;;16.78;60.50;100460.09;4961707;28;45260;-73
2022/05/11 04:55:06;;;;;;;;;16.75;15.00;;;;;16.78;60.23;100458.28;4961963;28;45525;-72
2022/05/11 04:57:32;;;;;;;;;10.50;8.75;;;;;16.80;60.20;100461.69;4962911;28;45315;-73
2022/05/11 04:59:57;;;;;;;;;14.00;14.00;;;;;16.84;60.31;100465.00;4944167;28;46677;-72
2022/05/11 05:02:25;;;;;;;;;14.75;14.75;;;;;16.87;60.35;100464.78;4961496;28;45315;-71
2022/05/11 05:04:51;;;;;;;;;18.00;16.25;;;;;16.91;60.24;100460.09;4960306;28;45454;-72
2022/05/11 05:07:18;;;;;;;;;18.50;15.75;;;;;16.99;59.86;100457.81;4956988;28;45498;-72
2022/05/11 05:09:43;;;;;;;;;15.50;13.00;;;;;17.14;59.90;100461.19;4956430;28;46279;-73
2022/05/11 05:12:11;;;;;;;;;14.25;14.25;;;;;17.30;59.56;100458.31;4956082;28;45269;-72
2022/05/11 05:14:37;;;;;;;;;16.25;16.25;;;;;17.54;59.56;100454.88;4955983;28;45300;-73
2022/05/11 05:17:05;;;;;;;;;24.00;18.00;;;;;17.80;58.86;100463.66;4957088;28;45448;-72
2022/05/11 05:19:31;;;;;;;;;20.00;18.75;;;;;17.98;58.38;100467.72;4957793;28;46145;-73
2022/05/11 05:21:58;;;;;;;;;16.00;16.00;;;;;18.07;58.06;100459.13;4939547;28;45455;-73
2022/05/11 05:24:23;;;;;;;;;17.00;17.00;;;;;18.10;58.08;100462.38;4957147;28;45231;-73
2022/05/11 05:26:49;;;;;;;;;14.75;14.75;;;;;18.14;57.72;100465.69;4957184;28;45600;-74
2022/05/11 05:31:58;;;;;;;;;17.50;17.00;;;;;18.25;57.77;100462.19;4958134;28;45673;-72
2022/05/11 05:34:24;;;;;;;;;19.75;19.75;;;;;18.16;57.53;100437.13;4941031;28;45398;-74
2022/05/11 05:36:49;;;;;;;;;18.00;16.50;;;;;18.40;56.97;100465.53;4956807;28;45554;-73
2022/05/11 05:39:14;;;;;;;;;16.25;15.50;;;;;18.42;56.50;100468.94;4955591;28;45287;-71
2022/05/11 05:41:40;;;;;;;;;16.00;15.00;;;;;18.43;56.38;100467.97;4955417;28;45310;-72
2022/05/11 05:44:06;;;;;;;;;20.00;16.50;;;;;18.43;56.27;100475.97;4955731;28;45384;-72
2022/05/11 05:46:34;;;;;;;;;2.25;1.50;;;;;18.39;55.86;100470.00;4956290;28;45421;-73
2022/05/11 05:49:00;;;;;;;;;22.50;18.25;;;;;18.37;55.88;100471.09;4955980;28;45280;-73
2022/05/11 05:51:26;;;;;;;;;22.25;17.50;;;;;18.36;55.71;100469.41;4955854;28;45303;-70
2022/05/11 05:53:52;;;;;;;;;14.75;13.75;;;;;18.34;55.46;100472.16;4956209;28;45408;-72
2022/05/11 05:56:17;;;;;;;;;15.50;15.00;;;;;18.29;55.03;100470.81;4955472;28;45339;-72
2022/05/11 05:58:46;;;;;;;;;13.25;13.25;;;;;18.27;54.84;100470.94;4955526;28;45277;-72
2022/05/11 06:01:13;;;;;;;;;13.00;13.00;;;;;18.25;54.65;100478.19;4955421;28;45291;-71
2022/05/11 06:03:40;;;;;;;;;14.00;14.00;;;;;18.21;54.46;100471.38;4957157;28;45446;-72
2022/05/11 06:06:07;;;;;;;;;17.25;14.25;;;;;18.25;54.52;100478.19;4955352;28;45314;-73
2022/05/11 06:08:33;;;;;;;;;15.00;14.00;;;;;18.27;54.52;100480.75;4955344;28;46037;-75
2022/05/11 06:10:58;;;;;;;;;15.50;13.75;;;;;18.20;54.06;100478.53;4958281;28;45165;-72
2022/05/11 06:13:24;;;;;;;;;15.50;12.50;;;;;18.23;53.78;100483.63;4958282;28;45356;-71
2022/05/11 06:15:51;;;;;;;;;11.25;11.25;;;;;18.13;53.83;100477.28;4960458;28;45463;-71
2022/05/11 06:18:17;;;;;;;;;8.50;8.50;;;;;18.16;53.74;100473.53;4961086;28;45380;-73
2022/05/11 06:20:43;;;;;;;;;8.50;8.50;;;;;18.18;53.71;100479.59;4958865;28;45449;-71
2022/05/11 06:23:08;;;;;;;;;13.75;11.50;;;;;18.11;53.62;100465.91;4958713;28;45350;-72
2022/05/11 06:25:37;;;;;;;;;12.25;11.00;;;;;18.14;53.59;100465.69;4958654;28;45395;-72
2022/05/11 06:28:03;;;;;;;;;14.75;14.75;;;;;18.24;53.27;100473.81;4958666;28;47044;-73
2022/05/11 06:30:31;;;;;;;;;13.00;11.75;;;;;18.28;53.27;100479.78;4957875;28;45363;-73
2022/05/11 06:32:57;;;;;;;;;13.00;13.00;;;;;18.27;53.20;100465.59;4940779;28;45415;-71
2022/05/11 06:35:22;;;;;;;;;13.00;12.75;;;;;18.37;53.40;100471.94;4958356;28;45296;-72
2022/05/11 06:37:51;;;;;;;;;14.50;12.50;;;;;18.42;53.11;100471.59;4958358;28;46153;-72
2022/05/11 06:40:17;;;;;;;;;14.00;11.75;;;;;18.47;52.77;100472.09;4959816;28;45339;-72
2022/05/11 06:42:43;;;;;;;;;13.50;12.75;;;;;18.54;52.81;100469.81;4958240;28;45376;-74
2022/05/11 06:45:09;;;;;;;;;17.50;13.75;;;;;18.61;52.74;100470.19;4959033;28;45414;-74
2022/05/11 06:47:35;;;;;;;;;16.50;15.00;;;;;18.65;52.32;100466.34;4941855;28;47536;-71
2022/05/11 06:50:01;;;;;;;;;19.25;19.25;;;;;18.73;52.19;100466.59;4958113;28;45426;-72
2022/05/11 06:52:27;;;;;;;;;12.00;12.00;;;;;18.81;52.21;100466.84;4958340;28;45483;-73
2022/05/11 07:00:22;;;;;;;;;15.00;15.00;;;;;19.04;51.29;100477.59;4958147;28;45271;-72
2022/05/11 07:02:48;;;;;;;;;14.50;14.50;;;;;19.11;51.39;100476.16;4958468;28;45286;-72
2022/05/11 07:05:13;;;;;;;;;14.75;14.50;;;;;19.17;50.77;100474.81;4941359;28;45468;-75
2022/05/11 07:07:39;;;;;;;;;13.75;13.75;;;;;19.20;50.93;100471.09;4958374;28;46233;-75
2022/05/11 07:10:06;;;;;;;;;13.50;12.75;;;;;19.24;50.64;100469.88;4941585;28;45519;-75
2022/05/11 07:12:35;;;;;;;;;14.00;14.00;;;;;19.27;50.57;100472.28;4959723;28;45247;-73
2022/05/11 07:15:05;;;;;;;;;12.00;12.00;;;;;19.34;50.21;100473.50;4958616;28;45429;-71
2022/05/11 07:17:42;;;;;;;;;13.00;12.25;;;;;19.40;49.74;100478.34;4958031;28;47060;-72
2022/05/11 07:20:14;;;;;;;;;11.50;11.50;;;;;19.40;49.75;100472.16;4962243;28;45212;-70
2022/05/11 07:22:40;;;;;;;;;13.25;11.75;;;;;19.46;49.84;100478.84;4958070;28;45339;-68
2022/05/11 07:25:10;;;;;;;;;9.25;9.25;;;;;19.47;49.39;100476.03;4957811;28;45130;-72
2022/05/11 07:27:36;;;;;;;;;10.25;10.25;;;;;19.37;49.09;100454.59;4958503;28;45372;-76
2022/05/11 07:30:06;;;;;;;;;10.25;10.25;;;;;19.48;49.39;100475.06;4957893;28;45366;-70
2022/05/11 07:32:31;;;;;;;;;10.50;10.50;;;;;19.49;48.83;100468.75;4958467;28;45216;-70
2022/05/11 07:34:56;;;;;;;;;11.50;11.00;;;;;19.55;48.42;100478.09;4958248;28;45248;-70
2022/05/11 07:37:23;;;;;;;;;12.00;12.00;;;;;19.50;49.25;100465.09;4958515;28;45559;-69
2022/05/11 07:39:49;;;;;;;;;12.25;11.50;;;;;19.63;49.10;100478.31;4958627;28;45490;-69
2022/05/11 07:42:16;;;;;;;;;12.25;12.00;;;;;19.69;49.20;100469.81;4959137;28;45508;-70
2022/05/11 07:44:42;;;;;;;;;12.50;11.75;;;;;19.82;48.74;100468.84;4940887;28;45306;-70
2022/05/11 07:47:07;;;;;;;;;11.25;11.00;;;;;19.89;48.28;100472.69;4959725;28;45490;-71
2022/05/11 07:49:33;;;;;;;;;14.50;14.00;;;;;20.02;48.48;100475.25;4958623;28;45392;-70
2022/05/11 07:51:58;;;;;;;;;9.50;9.25;;;;;20.14;47.80;100473.38;4941382;28;45451;-71
2022/05/11 07:54:23;;;;;;;;;10.00;10.00;;;;;20.24;46.98;100478.81;4956935;28;45283;-72
2022/05/11 07:59:52;;;;;;;;;11.25;9.75;;;;;20.33;46.31;100482.56;4957280;28;45406;-72
2022/05/11 08:02:17;;;;;;;;;10.00;10.00;;;;;20.38;46.35;100480.34;4956808;28;45355;-73
2022/05/11 08:04:43;;;;;;;;;8.00;7.50;;;;;20.43;45.93;100470.13;4957794;28;45405;-71
2022/05/11 08:07:10;;;;;;;;;8.00;8.00;;;;;20.51;45.46;100480.16;4958141;28;45343;-71
2022/05/11 08:09:37;;;;;;;;;9.25;8.25;;;;;20.63;45.16;100478.28;4958459;28;45294;-70
2022/05/11 08:12:02;;;;;;;;;7.25;6.00;;;;;20.68;44.93;100482.28;4957593;28;45365;-70
2022/05/11 08:14:28;;;;;;;;;6.50;6.50;;;;;20.74;43.67;100475.53;4958027;28;45616;-72
2022/05/11 08:16:54;;;;;;;;;5.75;5.75;;;;;20.85;43.54;100482.69;4955791;28;47276;-70
2022/05/11 08:19:24;;;;;;;;;8.00;7.25;;;;;20.91;42.65;100476.81;4955734;28;46099;-73
2022/05/11 08:21:51;;;;;;;;;6.50;5.00;;;;;21.00;42.71;100467.16;4957824;28;45341;-70
2022/05/11 08:24:18;;;;;;;;;5.00;5.00;;;;;21.06;42.17;100477.31;4957359;28;45626;-73
2022/05/11 08:26:46;;;;;;;;;4.25;4.25;;;;;21.09;41.60;100474.38;4956567;28;47190;-72
2022/05/11 08:33:18;;;;;;;;;4.50;4.50;;;;;21.14;41.46;100471.31;4958018;28;45401;-73
2022/05/11 08:34:41;;;;;;;;;6.50;5.00;;;;;21.28;40.85;100470.13;4956190;28;45434;-73
2022/05/11 08:37:07;;;;;;;;;6.75;6.00;;;;;21.35;40.90;100473.94;4956781;28;46146;-73
2022/05/11 08:39:32;;;;;;;;;5.00;5.00;;;;;21.42;41.05;100484.94;4940180;28;45404;-73
2022/05/11 08:42:00;;;;;;;;;4.00;4.00;;;;;21.53;40.62;100484.00;4955657;28;45913;-72
2022/05/11 08:44:33;;;;;;;;;7.75;6.00;;;;;21.59;40.06;100478.94;4956688;28;45401;-71
2022/05/11 08:46:58;;;;;;;;;7.75;6.50;;;;;21.70;39.53;100477.16;4956977;28;46405;-71
2022/05/11 08:49:48;;;;;;;;;6.00;6.00;;;;;21.78;39.71;100479.16;4959315;28;45326;-71
2022/05/11 08:52:29;;;;;;;;;7.75;6.25;;;;;21.92;38.98;100483.31;4959113;28;45619;-70
2022/05/11 08:55:10;;;;;;;;;5.00;5.00;;;;;21.99;39.48;100474.56;4957032;28;45329;-69
2022/05/11 08:57:38;;;;;;;;;6.00;4.75;;;;;22.12;39.19;100476.97;4956141;28;46486;-70
2022/05/11 09:00:15;;;;;;;;;6.25;6.25;;;;;22.20;39.15;100472.75;4955936;28;45360;-71
2022/05/11 09:02:48;;;;;;;;;9.25;7.75;;;;;22.32;38.76;100466.25;4955974;28;45251;-71
2022/05/11 09:05:15;;;;;;;;;9.50;8.50;;;;;22.40;38.44;100476.28;4956149;28;45422;-70
2022/05/11 09:07:44;;;;;;;;;4.25;4.25;;;;;22.47;37.24;100480.94;4956012;28;45264;-71
2022/05/11 09:10:17;;;;;;;;;9.25;9.25;;;;;22.49;37.11;100477.28;4954655;28;45384;-70
2022/05/11 09:12:42;;;;;;;;;7.50;7.50;;;;;22.54;36.75;100473.22;4956478;28;45457;-70
2022/05/11 09:15:08;;;;;;;;;6.00;5.25;;;;;22.61;36.58;100477.00;4956466;28;45170;-74
2022/05/11 09:17:40;;;;;;;;;7.00;5.75;;;;;22.69;37.05;100470.09;4954869;28;45687;-71
2022/05/11 09:20:05;;;;;;;;;6.00;6.00;;;;;22.77;35.96;100476.41;4955932;28;45308;-70
2022/05/11 09:22:33;;;;;;;;;5.75;4.00;;;;;22.87;35.68;100465.66;4954601;28;45489;-70
2022/05/11 09:25:03;;;;;;;;;3.00;3.00;;;;;22.64;34.72;100427.59;4956247;28;45334;-71
2022/05/11 09:27:33;;;;;;;;;6.00;4.50;;;;;22.96;35.43;100463.97;4938275;28;47996;-70
2022/05/11 09:30:01;;;;;;;;;5.00;5.00;;;;;23.03;35.21;100467.75;4956155;28;45485;-69
2022/05/11 09:32:33;;;;;;;;;5.50;5.00;;;;;23.11;35.82;100472.38;4955463;28;45335;-69
2022/05/11 09:35:32;;;;;;;;;4.50;4.50;;;;;23.26;36.33;100475.47;4938534;28;45369;-71
2022/05/11 09:38:05;;;;;;;;;6.50;5.00;;;;;23.39;35.39;100471.59;4936304;28;46200;-70
2022/05/11 09:40:47;;;;;;;;;5.00;3.50;;;;;23.44;34.15;100475.53;4956424;28;45323;-72
2022/05/11 09:43:46;;;;;;;;;3.50;3.50;;;;;23.46;34.28;100473.53;4955037;28;45274;-73
2022/05/11 09:46:17;;;;;;;;;2.75;2.75;;;;;23.54;34.29;100466.59;4956305;28;45482;-73
2022/05/11 09:48:57;;;;;;;;;3.00;2.25;;;;;23.58;33.78;100459.91;4957818;28;46623;-73
2022/05/11 09:51:27;;;;;;;;;7.75;4.75;;;;;23.68;32.62;100470.59;4959058;28;45297;-72
2022/05/11 09:54:38;;;;;;;;;5.50;5.50;;;;;23.70;33.01;100471.28;4960451;28;45358;-71
2022/05/11 09:57:09;;;;;;;;;6.00;4.50;;;;;23.72;32.28;100456.72;4960770;28;45455;-74
2022/05/11 09:59:38;;;;;;;;;2.50;2.50;;;;;23.74;32.31;100457.41;4959383;28;47440;-72
2022/05/11 10:02:22;;;;;;;;;4.00;2.75;;;;;23.72;33.03;100453.19;4960112;28;45278;-71
2022/05/11 10:04:55;;;;;;;;;6.00;6.00;;;;;23.79;33.45;100454.25;4960188;28;45445;-71
2022/05/11 10:07:23;;;;;;;;;4.75;4.75;;;;;23.93;33.89;100450.22;4959431;28;45381;-72
2022/05/11 10:10:00;;;;;;;;;4.00;4.00;;;;;24.06;34.05;100461.47;4959259;28;46201;-71
2022/05/11 10:12:32;;;;;;;;;6.25;5.00;;;;;24.18;33.25;100458.53;4958821;28;45313;-72
2022/05/11 10:23:35;;;;;;;;;7.75;7.75;;;;;24.25;34.11;100459.63;4959359;28;45308;-71
2022/05/11 10:26:08;;;;;;;;;4.00;3.25;;;;;24.25;34.67;100450.72;4959776;28;45460;-70
2022/05/11 10:28:52;;;;;;;;;6.50;4.25;;;;;24.30;34.37;100453.78;4959644;28;45557;-70
2022/05/11 10:31:31;;;;;;;;;5.00;5.00;;;;;24.42;33.68;100465.16;4943039;28;48416;-72
2022/05/11 10:34:20;;;;;;;;;10.75;7.25;;;;;24.53;33.96;100459.53;4958792;28;45637;-70
2022/05/11 10:37:01;;;;;;;;;7.00;3.50;;;;;24.63;34.06;100452.22;4959580;28;45315;-72
2022/05/11 10:39:29;;;;;;;;;5.00;5.00;;;;;24.64;34.02;100463.78;4959803;28;45364;-71
2022/05/11 10:42:09;;;;;;;;;3.25;3.25;;;;;24.54;34.75;100463.06;4957874;28;46644;-70
2022/05/11 10:44:55;;;;;;;;;2.50;2.25;;;;;24.54;35.14;100460.38;4958793;28;45454;-72
2022/05/11 10:47:52;;;;;;;;;8.50;8.50;;;;;24.40;34.76;100435.72;4957045;28;45200;-71
2022/05/11 10:50:39;;;;;;;;;3.75;3.75;;;;;24.62;34.58;100458.59;4960187;28;45188;-74
2022/05/11 10:53:27;;;;;;;;;6.00;6.00;;;;;24.74;34.70;100450.31;4959327;28;45402;-71
2022/05/11 10:56:33;;;;;;;;;4.25;4.25;;;;;24.79;34.00;100447.97;4958687;28;45423;-77
2022/05/11 10:58:59;;;;;;;;;4.50;4.50;;;;;24.84;34.15;100451.03;4958972;28;45377;-72
2022/05/11 11:01:35;;;;;;;;;5.50;4.00;;;;;24.90;34.29;100442.31;4959065;28;45410;-71
2022/05/11 11:04:29;;;;;;;;;8.75;7.00;;;;;25.00;34.46;100439.53;4958183;28;45906;-73
2022/05/11 11:07:32;;;;;;;;;5.00;5.00;;;;;25.05;34.51;100439.03;4951713;28;45576;-72
2022/05/11 11:10:10;;;;;;;;;4.50;3.75;;;;;25.06;34.59;100438.03;4959634;28;45390;-73
2022/05/11 11:13:00;;;;;;;;;4.25;4.25;;;;;25.09;34.58;100432.34;4958357;28;45317;-71
2022/05/11 11:15:30;;;;;;;;;4.50;4.50;;;;;25.11;35.32;100438.41;4957358;28;45698;-71
2022/05/11 11:17:57;;;;;;;;;3.00;3.00;;;;;25.13;34.97;100436.38;4958819;28;45334;-72
2022/05/11 11:20:25;;;;;;;;;7.00;4.00;;;;;25.18;34.93;100414.38;4957127;28;45318;-72
2022/05/11 11:23:00;;;;;;;;;3.75;3.75;;;;;25.32;34.98;100424.53;4941689;28;45494;-73
2022/05/11 11:25:27;;;;;;;;;6.75;3.75;;;;;25.34;34.33;100413.59;4958036;28;46558;-73
2022/05/11 11:28:08;;;;;;;;;3.00;3.00;;;;;25.42;34.35;100424.38;4959544;28;45295;-70
2022/05/11 11:30:34;;;;;;;;;6.00;5.00;;;;;25.46;34.11;100420.44;4958181;28;45330;-73
2022/05/11 11:33:15;;;;;;;;;2.25;2.25;;;;;25.44;34.03;100417.00;4958172;28;45410;-74
2022/05/11 11:35:55;;;;;;;;;4.00;4.00;;;;;25.48;34.68;100417.56;4959699;28;46959;-75
2022/05/11 11:38:30;;;;;;;;;3.50;1.75;;;;;25.57;34.27;100415.75;4957728;28;45386;-74
2022/05/11 11:41:22;;;;;;;;;2.00;2.00;;;;;25.57;33.78;100411.19;4957788;28;45374;-72
2022/05/11 11:44:03;;;;;;;;;4.75;2.75;;;;;25.56;33.73;100419.44;4950787;28;45370;-72
2022/05/11 11:46:41;;;;;;;;;5.25;3.50;;;;;25.57;34.02;100404.97;4957938;28;46429;-73
2022/05/11 11:49:18;;;;;;;;;3.00;3.00;;;;;25.60;33.97;100410.03;4957206;28;45324;-72
2022/05/11 11:52:00;;;;;;;;;4.00;2.75;;;;;25.63;34.24;100415.91;4957269;28;45406;-73
2022/05/11 11:54:37;;;;;;;;;4.00;3.00;;;;;25.53;33.85;100377.50;4961357;28;45614;-72
2022/05/11 11:57:12;;;;;;;;;2.75;2.25;;;;;25.73;33.56;100394.22;4959094;28;46179;-74